Time;durP1;ratioP1;P1;durP2;ratioP2;P2;SDS_P1;SDS_P2;PMS_P1;PMS_P2;Temp;Humidity;BMP_temperature;BMP_pressure;BME280_temperature;BME280_humidity;BME280_pressure;Samples;Min_cycle;Max_cycle;Signal;HPM_P1;HPM_P2
2023/03/03 00:02:02;;;;;;;34.80;21.17;;;9.70;48.70;;;;;;5006242;28;20559;-44
2023/03/03 00:04:27;;;;;;;32.57;23.07;;;9.70;48.80;;;;;;5006250;28;20197;-47
2023/03/03 00:06:53;;;;;;;31.70;21.13;;;9.70;48.90;;;;;;5010659;28;20206;-45
2023/03/03 00:09:18;;;;;;;34.97;20.07;;;9.70;48.80;;;;;;5011660;28;20201;-46
2023/03/03 00:11:46;;;;;;;34.53;22.27;;;9.60;48.70;;;;;;5009467;28;20198;-46
2023/03/03 00:14:38;;;;;;;35.33;21.70;;;9.60;48.70;;;;;;5004036;28;20264;-45
2023/03/03 00:17:24;;;;;;;30.07;21.07;;;9.60;48.70;;;;;;5005607;28;20573;-44
2023/03/03 00:19:50;;;;;;;37.67;22.50;;;9.50;48.80;;;;;;5012223;28;20736;-44
2023/03/03 00:22:36;;;;;;;34.90;22.43;;;9.40;49.00;;;;;;5010743;28;20546;-45
2023/03/03 00:25:32;;;;;;;31.70;20.50;;;9.30;49.00;;;;;;5010852;28;20536;-44
2023/03/03 00:28:14;;;;;;;32.70;20.77;;;9.30;49.10;;;;;;5006400;28;20483;-46
2023/03/03 00:30:40;;;;;;;31.87;21.47;;;9.30;49.20;;;;;;5009399;28;21043;-45
2023/03/03 00:33:27;;;;;;;36.10;23.10;;;9.30;49.20;;;;;;5011400;28;20441;-45
2023/03/03 00:35:55;;;;;;;30.50;20.97;;;9.20;49.20;;;;;;5006291;28;20218;-45
2023/03/03 00:38:21;;;;;;;30.00;21.17;;;9.10;49.20;;;;;;5004765;28;20491;-44
2023/03/03 00:40:47;;;;;;;30.83;21.50;;;9.10;49.50;;;;;;5002448;28;20458;-46
2023/03/03 00:43:24;;;;;;;29.63;20.23;;;9.10;49.60;;;;;;5008771;28;20555;-45
2023/03/03 00:45:52;;;;;;;29.43;20.13;;;9.10;49.50;;;;;;5003841;28;20445;-46
2023/03/03 00:48:47;;;;;;;31.70;21.23;;;9.20;49.40;;;;;;5008490;28;20480;-45
2023/03/03 00:51:42;;;;;;;28.30;20.50;;;9.10;49.40;;;;;;4988176;28;20891;-44
2023/03/03 00:54:08;;;;;;;32.30;21.97;;;9.10;49.60;;;;;;4985736;28;20445;-47
2023/03/03 00:56:33;;;;;;;33.70;22.40;;;9.10;49.60;;;;;;5005971;28;20445;-47
2023/03/03 00:58:59;;;;;;;33.27;20.80;;;9.10;49.70;;;;;;5007831;28;20545;-46
2023/03/03 01:01:25;;;;;;;33.63;20.30;;;9.00;49.60;;;;;;5007838;28;20201;-44
2023/03/03 01:03:50;;;;;;;31.67;21.30;;;8.90;49.50;;;;;;5009142;28;20230;-45
2023/03/03 01:06:16;;;;;;;34.10;22.30;;;8.90;49.70;;;;;;5012084;28;20190;-44
2023/03/03 01:08:42;;;;;;;34.93;21.87;;;8.80;49.80;;;;;;5003038;28;20189;-45
2023/03/03 01:11:15;;;;;;;34.60;22.90;;;8.80;49.90;;;;;;4998473;28;20265;-44
2023/03/03 01:13:43;;;;;;;35.87;22.70;;;8.80;50.30;;;;;;5001364;28;20209;-44
2023/03/03 01:16:09;;;;;;;34.83;22.10;;;8.70;50.70;;;;;;4999030;28;20426;-45
2023/03/03 01:18:35;;;;;;;31.57;22.20;;;8.40;51.40;;;;;;5005160;28;20479;-44
2023/03/03 01:21:01;;;;;;;34.90;22.40;;;8.40;51.50;;;;;;5009725;28;20194;-45
2023/03/03 01:23:27;;;;;;;29.87;20.60;;;8.30;51.60;;;;;;5005158;28;20956;-44
2023/03/03 01:25:53;;;;;;;34.37;21.53;;;8.20;51.90;;;;;;5007531;28;20495;-45
2023/03/03 01:28:19;;;;;;;35.10;22.00;;;8.30;51.80;;;;;;5008946;28;20445;-44
2023/03/03 01:30:45;;;;;;;32.07;21.53;;;8.40;51.60;;;;;;5007111;28;20214;-45
2023/03/03 01:33:10;;;;;;;34.97;22.17;;;8.40;51.30;;;;;;5009609;28;20665;-45
2023/03/03 01:35:36;;;;;;;35.60;21.70;;;8.40;51.00;;;;;;5000724;28;20201;-44
2023/03/03 01:38:02;;;;;;;35.43;22.13;;;8.50;51.30;;;;;;5009714;28;20194;-49
2023/03/03 01:40:29;;;;;;;30.00;20.77;;;8.40;51.40;;;;;;5000480;28;20216;-46
2023/03/03 01:42:55;;;;;;;35.87;22.63;;;8.50;51.30;;;;;;5003532;28;20893;-45
2023/03/03 01:45:25;;;;;;;31.97;21.30;;;8.50;51.10;;;;;;5004125;28;20505;-45
2023/03/03 01:48:12;;;;;;;33.03;19.00;;;8.40;51.40;;;;;;5005855;28;20575;-44
2023/03/03 01:50:47;;;;;;;30.23;20.13;;;8.40;51.40;;;;;;5006843;28;20818;-47
2023/03/03 01:53:18;;;;;;;33.77;22.10;;;8.40;51.20;;;;;;5005356;28;20987;-44
2023/03/03 01:55:46;;;;;;;31.73;20.90;;;8.40;50.90;;;;;;5008542;28;20445;-47
2023/03/03 01:58:24;;;;;;;34.77;21.47;;;8.40;50.90;;;;;;5003882;28;20449;-44
2023/03/03 02:00:56;;;;;;;34.40;21.53;;;8.50;51.00;;;;;;5000762;28;20450;-44
2023/03/03 02:03:23;;;;;;;30.90;21.67;;;8.50;51.00;;;;;;5004888;28;20493;-46
2023/03/03 02:05:51;;;;;;;35.80;21.10;;;8.30;50.90;;;;;;5008422;28;20868;-44
2023/03/03 02:08:25;;;;;;;33.70;21.20;;;8.30;51.40;;;;;;5000340;28;20443;-44
2023/03/03 02:10:51;;;;;;;35.87;22.70;;;8.30;51.40;;;;;;5009704;28;20452;-44
2023/03/03 02:13:16;;;;;;;35.70;21.50;;;8.20;51.40;;;;;;5006908;28;20451;-44
2023/03/03 02:15:42;;;;;;;33.53;21.30;;;8.10;51.50;;;;;;5005499;28;20437;-44
2023/03/03 02:18:10;;;;;;;35.07;21.63;;;8.00;51.50;;;;;;4998976;28;20198;-44
2023/03/03 02:20:51;;;;;;;32.97;20.73;;;8.10;51.60;;;;;;4993049;28;20195;-44
2023/03/03 02:23:26;;;;;;;40.80;20.37;;;8.00;51.50;;;;;;5010561;28;20488;-48
2023/03/03 02:25:59;;;;;;;31.23;19.73;;;8.10;51.60;;;;;;5000479;28;20424;-44
2023/03/03 02:28:28;;;;;;;33.83;21.77;;;8.00;51.40;;;;;;5011531;28;20788;-45
2023/03/03 02:30:56;;;;;;;32.43;21.40;;;8.00;51.60;;;;;;5001490;28;20422;-45
2023/03/03 02:33:21;;;;;;;32.67;21.30;;;8.00;51.50;;;;;;4999691;28;20513;-47
2023/03/03 02:35:47;;;;;;;35.47;21.83;;;7.90;51.50;;;;;;4991427;28;20581;-44
2023/03/03 02:38:24;;;;;;;36.13;22.83;;;7.90;51.40;;;;;;4993969;28;20198;-44
2023/03/03 02:41:08;;;;;;;30.67;21.00;;;7.90;51.40;;;;;;5010714;28;20193;-44
2023/03/03 02:43:45;;;;;;;37.97;22.80;;;7.90;51.50;;;;;;5011023;28;20488;-44
2023/03/03 02:46:11;;;;;;;36.80;22.57;;;7.90;51.80;;;;;;5008291;28;20539;-44
2023/03/03 02:48:36;;;;;;;37.10;23.50;;;7.90;51.70;;;;;;5009817;28;20897;-45
2023/03/03 02:51:02;;;;;;;34.80;22.73;;;7.90;51.70;;;;;;5006810;28;20220;-44
2023/03/03 02:53:28;;;;;;;32.80;21.83;;;8.00;51.70;;;;;;5009132;28;20222;-46
2023/03/03 02:55:53;;;;;;;33.30;21.53;;;7.90;51.90;;;;;;5009369;28;20190;-44
2023/03/03 02:58:19;;;;;;;37.17;22.30;;;7.90;52.10;;;;;;5008760;28;20613;-44
2023/03/03 03:00:46;;;;;;;31.00;21.37;;;7.90;52.10;;;;;;5005573;28;20198;-46
2023/03/03 03:03:13;;;;;;;36.00;22.03;;;7.90;52.00;;;;;;5002475;28;20317;-44
2023/03/03 03:05:39;;;;;;;36.67;20.23;;;7.90;51.90;;;;;;4999616;28;20516;-47
2023/03/03 03:08:04;;;;;;;35.90;22.10;;;7.80;51.90;;;;;;5011548;28;20539;-46
2023/03/03 03:10:30;;;;;;;32.80;20.70;;;7.80;52.10;;;;;;5013145;28;20208;-45
2023/03/03 03:12:55;;;;;;;38.53;21.73;;;7.80;52.30;;;;;;5012187;28;20198;-44
2023/03/03 03:15:21;;;;;;;29.93;20.87;;;7.80;52.40;;;;;;5012439;28;20221;-44
2023/03/03 03:17:47;;;;;;;33.10;19.73;;;7.80;52.30;;;;;;5012065;28;20215;-45
2023/03/03 03:20:12;;;;;;;29.37;20.73;;;7.80;52.40;;;;;;5012931;28;20206;-46
2023/03/03 03:22:38;;;;;;;31.90;21.00;;;7.70;52.70;;;;;;5011724;28;20688;-46
2023/03/03 03:25:04;;;;;;;34.63;20.53;;;7.50;52.90;;;;;;5012016;28;20277;-45
2023/03/03 03:27:29;;;;;;;33.70;21.50;;;7.50;53.20;;;;;;5008677;28;20235;-44
2023/03/03 03:29:55;;;;;;;34.97;23.07;;;7.60;53.40;;;;;;5010261;28;20281;-45
2023/03/03 03:32:21;;;;;;;37.10;21.67;;;7.60;53.20;;;;;;5012273;28;20562;-48
2023/03/03 03:34:46;;;;;;;32.80;22.20;;;7.50;53.30;;;;;;5008235;28;20201;-45
2023/03/03 03:37:12;;;;;;;35.17;21.33;;;7.60;53.40;;;;;;4998914;28;20194;-46
2023/03/03 03:39:37;;;;;;;39.20;22.03;;;7.60;53.10;;;;;;5012127;28;20194;-45
2023/03/03 03:42:03;;;;;;;38.00;22.37;;;7.70;53.00;;;;;;5009263;28;20202;-48
2023/03/03 03:44:28;;;;;;;34.63;22.30;;;7.60;52.90;;;;;;5007066;28;20284;-44
2023/03/03 03:46:54;;;;;;;35.67;22.50;;;7.60;53.10;;;;;;5011448;28;20278;-44
2023/03/03 03:49:20;;;;;;;35.83;22.03;;;7.70;53.20;;;;;;5008004;28;20751;-47
2023/03/03 03:51:46;;;;;;;35.47;22.20;;;7.70;53.00;;;;;;5006512;28;20190;-47
2023/03/03 03:54:11;;;;;;;32.30;20.90;;;7.80;53.00;;;;;;5007560;28;20527;-45
2023/03/03 03:56:37;;;;;;;37.93;23.27;;;7.80;52.90;;;;;;5006564;28;20248;-45
2023/03/03 03:59:05;;;;;;;33.13;21.40;;;7.80;52.80;;;;;;5007372;28;20194;-46
2023/03/03 04:01:31;;;;;;;34.30;21.80;;;7.90;52.90;;;;;;5009810;28;20202;-48
2023/03/03 04:03:57;;;;;;;36.27;22.97;;;7.90;52.70;;;;;;5006350;28;20485;-45
2023/03/03 04:06:22;;;;;;;40.10;21.40;;;7.80;52.60;;;;;;5006789;28;20952;-44
2023/03/03 04:08:48;;;;;;;33.70;19.27;;;7.80;53.00;;;;;;4995731;28;20554;-45
2023/03/03 04:11:13;;;;;;;36.03;22.00;;;7.90;53.00;;;;;;5008640;28;20276;-49
2023/03/03 04:13:39;;;;;;;33.63;20.57;;;7.90;52.80;;;;;;5005204;28;20206;-45
2023/03/03 04:16:05;;;;;;;42.10;22.77;;;7.90;52.70;;;;;;5010609;28;20205;-44
2023/03/03 04:18:30;;;;;;;35.83;22.53;;;7.90;52.80;;;;;;5011522;28;20197;-49
2023/03/03 04:20:56;;;;;;;33.80;21.60;;;7.80;52.80;;;;;;5012690;28;20194;-47
2023/03/03 04:23:21;;;;;;;35.60;23.30;;;7.90;53.00;;;;;;5011069;28;20366;-44
2023/03/03 04:25:48;;;;;;;33.63;21.53;;;7.90;52.80;;;;;;5010666;28;20198;-47
2023/03/03 04:28:17;;;;;;;33.87;21.73;;;7.90;52.80;;;;;;5012102;28;20205;-49
2023/03/03 04:30:43;;;;;;;33.90;22.60;;;7.90;53.00;;;;;;5012683;28;20424;-49
2023/03/03 04:33:09;;;;;;;36.27;21.97;;;7.70;53.20;;;;;;4999073;28;20431;-49
2023/03/03 04:35:34;;;;;;;35.07;22.17;;;7.70;53.50;;;;;;4993756;28;20441;-47
2023/03/03 04:38:00;;;;;;;33.37;21.83;;;7.70;53.70;;;;;;5001026;28;20201;-45
2023/03/03 04:40:26;;;;;;;37.07;23.20;;;7.50;53.90;;;;;;5012972;28;20609;-48
2023/03/03 04:42:51;;;;;;;40.17;23.63;;;7.40;54.30;;;;;;5013156;28;20229;-50
2023/03/03 04:45:17;;;;;;;28.27;20.47;;;7.40;54.60;;;;;;5013039;28;20527;-46
2023/03/03 04:47:42;;;;;;;33.43;21.50;;;7.50;55.10;;;;;;4994670;28;20246;-45
2023/03/03 04:50:09;;;;;;;36.63;21.87;;;7.60;54.40;;;;;;5010981;28;20221;-45
2023/03/03 04:52:35;;;;;;;32.90;23.03;;;7.80;54.20;;;;;;5005060;28;20205;-49
2023/03/03 04:55:01;;;;;;;37.93;23.53;;;7.90;54.40;;;;;;5000987;28;20868;-44
2023/03/03 04:57:26;;;;;;;35.80;22.70;;;7.90;53.60;;;;;;5012679;28;20928;-45
2023/03/03 04:59:52;;;;;;;31.70;21.80;;;8.00;53.60;;;;;;5009338;28;20603;-48
2023/03/03 05:02:18;;;;;;;39.67;22.87;;;8.00;53.60;;;;;;5010214;28;20225;-47
2023/03/03 05:04:44;;;;;;;35.53;23.37;;;8.10;53.50;;;;;;5003504;28;20614;-49
2023/03/03 05:07:09;;;;;;;31.70;20.97;;;8.10;53.50;;;;;;4994789;28;20525;-49
2023/03/03 05:09:35;;;;;;;35.00;20.57;;;8.10;53.40;;;;;;4998424;28;20601;-48
2023/03/03 05:12:01;;;;;;;31.73;22.07;;;8.10;53.40;;;;;;5012214;28;20281;-50
2023/03/03 05:14:26;;;;;;;35.53;23.60;;;8.10;53.30;;;;;;5004929;28;20186;-45
2023/03/03 05:16:53;;;;;;;36.50;21.80;;;8.10;53.40;;;;;;5001452;28;20727;-49
2023/03/03 05:19:18;;;;;;;36.63;22.73;;;8.10;53.50;;;;;;5007041;28;20232;-49
2023/03/03 05:21:44;;;;;;;37.17;22.43;;;8.10;53.60;;;;;;5011356;28;20995;-45
2023/03/03 05:24:11;;;;;;;35.90;23.00;;;8.20;53.70;;;;;;5009540;28;20728;-47
2023/03/03 05:26:38;;;;;;;43.00;23.50;;;8.20;53.60;;;;;;5009058;28;20230;-50
2023/03/03 05:29:03;;;;;;;31.40;21.80;;;8.20;53.60;;;;;;5002050;28;20441;-47
2023/03/03 05:31:29;;;;;;;35.23;22.80;;;8.20;53.60;;;;;;5006931;28;20498;-49
2023/03/03 05:33:55;;;;;;;36.03;21.63;;;8.30;53.70;;;;;;5004142;28;20202;-49
2023/03/03 05:36:21;;;;;;;33.60;22.60;;;8.30;53.60;;;;;;5007843;28;20198;-45
2023/03/03 05:38:46;;;;;;;38.10;21.80;;;8.30;53.50;;;;;;5007691;28;20255;-47
2023/03/03 05:41:12;;;;;;;35.37;22.40;;;8.30;53.40;;;;;;5008828;28;20441;-48
2023/03/03 05:43:37;;;;;;;33.10;22.87;;;8.30;53.50;;;;;;5001959;28;20280;-45
2023/03/03 05:46:03;;;;;;;31.97;20.90;;;8.30;53.40;;;;;;5009368;28;20210;-44
2023/03/03 05:48:29;;;;;;;33.60;21.80;;;8.30;53.30;;;;;;5007403;28;20238;-50
2023/03/03 05:50:58;;;;;;;36.07;23.30;;;8.40;53.30;;;;;;5008094;28;20277;-50
2023/03/03 05:53:24;;;;;;;38.67;23.60;;;8.40;53.30;;;;;;5007544;28;20194;-49
2023/03/03 05:55:49;;;;;;;38.20;24.40;;;8.40;53.20;;;;;;5008916;28;20436;-48
2023/03/03 05:58:15;;;;;;;36.83;22.30;;;8.50;53.20;;;;;;5009151;28;20945;-44
2023/03/03 06:00:40;;;;;;;34.60;24.40;;;8.50;53.10;;;;;;5007613;28;20662;-48
2023/03/03 06:03:06;;;;;;;36.03;24.27;;;8.50;53.00;;;;;;5007449;28;20232;-47
2023/03/03 06:05:32;;;;;;;33.17;22.20;;;8.50;53.00;;;;;;5008633;28;20275;-49
2023/03/03 06:07:58;;;;;;;32.23;21.97;;;8.50;53.20;;;;;;5000863;28;20960;-46
2023/03/03 06:10:24;;;;;;;35.23;21.70;;;8.50;53.40;;;;;;5005049;28;20202;-50
2023/03/03 06:12:50;;;;;;;37.60;23.83;;;8.60;53.60;;;;;;5007823;28;20500;-45
2023/03/03 06:15:16;;;;;;;40.80;23.03;;;8.60;53.50;;;;;;5004999;28;20893;-50
2023/03/03 06:17:42;;;;;;;35.50;23.73;;;8.60;53.40;;;;;;5006190;28;20436;-48
2023/03/03 06:20:08;;;;;;;34.00;22.57;;;8.60;53.20;;;;;;5002663;28;20225;-51
2023/03/03 06:22:34;;;;;;;29.17;21.23;;;8.60;54.20;;;;;;5006691;28;20248;-50
2023/03/03 06:24:59;;;;;;;31.97;22.20;;;9.00;56.10;;;;;;5003988;28;20449;-48
2023/03/03 06:27:25;;;;;;;35.73;23.30;;;9.30;55.40;;;;;;5001489;28;20679;-50
2023/03/03 06:29:51;;;;;;;30.37;21.90;;;9.60;54.60;;;;;;5006079;28;20275;-50
2023/03/03 06:32:16;;;;;;;29.63;21.50;;;9.80;53.10;;;;;;5001950;28;20213;-50
2023/03/03 06:34:42;;;;;;;30.70;21.77;;;10.10;51.40;;;;;;5005596;28;20544;-50
2023/03/03 06:37:08;;;;;;;34.67;21.53;;;10.20;50.40;;;;;;5007610;28;20234;-51
2023/03/03 06:39:33;;;;;;;36.23;22.87;;;10.40;50.30;;;;;;5000252;28;20726;-49
2023/03/03 06:41:59;;;;;;;32.70;23.10;;;10.60;49.80;;;;;;5009061;28;20200;-48
2023/03/03 06:44:24;;;;;;;37.50;23.50;;;10.70;48.60;;;;;;5005518;28;20194;-48
2023/03/03 06:46:50;;;;;;;34.90;23.10;;;10.90;48.70;;;;;;5001322;28;20251;-50
2023/03/03 06:49:16;;;;;;;31.80;22.10;;;11.00;48.40;;;;;;5001850;28;20246;-51
2023/03/03 06:51:44;;;;;;;37.67;23.27;;;11.10;48.30;;;;;;5005050;28;20449;-50
2023/03/03 06:54:15;;;;;;;39.33;23.87;;;11.20;48.20;;;;;;5006773;28;20853;-50
2023/03/03 06:56:42;;;;;;;37.73;24.73;;;11.30;47.50;;;;;;4999952;28;20460;-46
2023/03/03 06:59:18;;;;;;;43.07;25.37;;;11.40;47.50;;;;;;5006654;28;20547;-51
2023/03/03 07:01:46;;;;;;;36.30;24.60;;;11.40;47.40;;;;;;5003403;28;20444;-50
2023/03/03 07:04:21;;;;;;;37.47;24.20;;;11.50;47.00;;;;;;5003858;28;20485;-49
2023/03/03 07:06:47;;;;;;;38.80;25.13;;;11.50;46.70;;;;;;5003204;28;20464;-48
2023/03/03 07:09:24;;;;;;;36.80;25.30;;;11.60;46.50;;;;;;5008138;28;20455;-49
2023/03/03 07:11:51;;;;;;;39.03;24.70;;;11.60;46.60;;;;;;5001971;28;20561;-46
2023/03/03 07:14:19;;;;;;;37.97;24.20;;;11.60;46.40;;;;;;5003326;28;20454;-49
2023/03/03 07:16:45;;;;;;;37.00;25.00;;;11.60;46.10;;;;;;4999653;28;21002;-46
2023/03/03 07:19:34;;;;;;;36.87;25.77;;;11.70;46.10;;;;;;5006153;28;20448;-45
2023/03/03 07:22:24;;;;;;;36.67;25.47;;;11.60;46.00;;;;;;4996039;28;20452;-45
2023/03/03 07:24:52;;;;;;;36.87;24.93;;;11.60;45.90;;;;;;5004617;28;20449;-46
2023/03/03 07:27:28;;;;;;;39.63;26.03;;;11.40;46.00;;;;;;5007435;28;20490;-45
2023/03/03 07:30:11;;;;;;;35.73;23.93;;;11.30;46.10;;;;;;5002457;28;20599;-47
2023/03/03 07:32:45;;;;;;;42.07;26.13;;;11.10;46.10;;;;;;4994294;28;20535;-45
2023/03/03 07:35:38;;;;;;;40.80;26.07;;;11.00;46.40;;;;;;5003508;28;20936;-46
2023/03/03 07:38:20;;;;;;;38.30;25.27;;;11.10;46.80;;;;;;4995201;28;21174;-47
2023/03/03 07:40:52;;;;;;;41.80;26.07;;;11.10;46.80;;;;;;5004352;28;20532;-46
2023/03/03 07:43:53;;;;;;;39.43;25.50;;;11.10;46.70;;;;;;5005222;28;20550;-46
2023/03/03 07:46:47;;;;;;;39.63;27.30;;;11.10;46.60;;;;;;4992317;28;20487;-45
2023/03/03 07:49:32;;;;;;;40.97;26.47;;;11.20;46.50;;;;;;5000560;28;20484;-45
2023/03/03 07:51:59;;;;;;;39.60;26.70;;;11.30;46.70;;;;;;5000762;28;20478;-45
2023/03/03 07:54:36;;;;;;;41.43;27.50;;;11.40;46.30;;;;;;4996579;28;20422;-45
2023/03/03 07:57:17;;;;;;;39.13;25.87;;;11.50;46.20;;;;;;5010813;28;20460;-46
2023/03/03 07:59:58;;;;;;;39.63;27.43;;;11.70;46.40;;;;;;5007434;28;20443;-48
2023/03/03 08:02:27;;;;;;;38.57;26.60;;;11.90;46.30;;;;;;5012674;28;20465;-46
2023/03/03 08:04:53;;;;;;;42.20;26.73;;;12.10;45.70;;;;;;5011931;28;20453;-47
2023/03/03 08:07:21;;;;;;;39.30;25.60;;;12.20;45.50;;;;;;5011076;28;20448;-46
2023/03/03 08:09:59;;;;;;;40.67;26.40;;;12.40;45.20;;;;;;5011029;28;20448;-47
2023/03/03 08:12:40;;;;;;;41.90;27.87;;;12.50;44.70;;;;;;5002760;28;20844;-45
2023/03/03 08:15:20;;;;;;;40.87;25.97;;;12.60;44.50;;;;;;5013298;28;20425;-49
2023/03/03 08:17:47;;;;;;;41.50;26.40;;;12.60;44.20;;;;;;5007378;28;20456;-45
2023/03/03 08:20:34;;;;;;;37.53;27.40;;;12.50;43.90;;;;;;5008764;28;20427;-46
2023/03/03 08:23:00;;;;;;;41.80;26.10;;;12.50;44.00;;;;;;4993654;28;20477;-46
2023/03/03 08:25:25;;;;;;;39.90;27.40;;;12.50;44.30;;;;;;5010393;28;20447;-48
2023/03/03 08:27:51;;;;;;;37.87;27.97;;;12.50;44.30;;;;;;5002776;28;20238;-51
2023/03/03 08:30:16;;;;;;;42.00;26.70;;;12.50;43.90;;;;;;5001255;28;20195;-48
2023/03/03 08:32:42;;;;;;;35.33;25.60;;;12.40;43.90;;;;;;4994648;28;20209;-46
2023/03/03 08:35:08;;;;;;;37.43;25.03;;;12.40;44.00;;;;;;5008763;28;20197;-48
2023/03/03 08:37:33;;;;;;;37.03;25.97;;;12.30;43.90;;;;;;5008051;28;20281;-46
2023/03/03 08:39:59;;;;;;;37.07;25.73;;;12.40;44.00;;;;;;5007973;28;20190;-46
2023/03/03 08:42:24;;;;;;;38.07;24.90;;;12.40;44.30;;;;;;5001970;28;20298;-46
2023/03/03 08:44:50;;;;;;;35.53;25.57;;;12.50;44.30;;;;;;5004513;28;20666;-47
2023/03/03 08:47:15;;;;;;;34.73;23.77;;;12.60;43.10;;;;;;5009024;28;20193;-47
2023/03/03 08:49:41;;;;;;;32.93;25.83;;;12.40;42.80;;;;;;5008266;28;20653;-49
2023/03/03 08:52:07;;;;;;;31.53;23.27;;;12.40;43.30;;;;;;5002817;28;20244;-47
2023/03/03 08:54:32;;;;;;;32.90;24.13;;;12.20;43.50;;;;;;5000276;28;20198;-49
2023/03/03 08:56:58;;;;;;;37.20;24.80;;;12.30;43.40;;;;;;5004956;28;20194;-49
2023/03/03 08:59:23;;;;;;;35.60;25.53;;;12.10;44.10;;;;;;5002547;28;21659;-50
2023/03/03 09:01:49;;;;;;;40.20;25.27;;;12.20;44.30;;;;;;5006261;28;20202;-45
2023/03/03 09:04:14;;;;;;;34.17;26.73;;;12.20;44.30;;;;;;5002677;28;20226;-46
2023/03/03 09:06:40;;;;;;;34.40;24.97;;;12.30;44.20;;;;;;5005573;28;20646;-45
2023/03/03 09:09:06;;;;;;;34.10;24.50;;;12.30;44.20;;;;;;5005268;28;20199;-46
2023/03/03 09:11:32;;;;;;;36.40;25.20;;;12.40;44.30;;;;;;5002151;28;20213;-45
2023/03/03 09:14:00;;;;;;;37.83;25.20;;;12.60;44.00;;;;;;5003256;28;20190;-45
2023/03/03 09:16:31;;;;;;;39.20;24.40;;;12.70;43.80;;;;;;5012039;28;20441;-47
2023/03/03 09:18:57;;;;;;;38.93;26.90;;;12.80;43.60;;;;;;5007882;28;20467;-45
2023/03/03 09:21:31;;;;;;;34.33;25.20;;;12.90;43.30;;;;;;5006516;28;20448;-48
2023/03/03 09:23:58;;;;;;;36.20;25.63;;;13.00;43.70;;;;;;5001405;28;20896;-48
2023/03/03 09:26:38;;;;;;;39.57;25.67;;;13.00;43.20;;;;;;5006776;28;20487;-46
2023/03/03 09:29:22;;;;;;;32.30;24.40;;;12.70;43.70;;;;;;5004955;28;20967;-46
2023/03/03 09:31:50;;;;;;;42.27;28.33;;;12.70;43.90;;;;;;4999638;28;20484;-45
2023/03/03 09:34:36;;;;;;;38.47;26.70;;;12.80;43.90;;;;;;5006459;28;21019;-45
2023/03/03 09:37:20;;;;;;;40.27;26.80;;;12.80;43.70;;;;;;4993148;28;20483;-46
2023/03/03 09:39:52;;;;;;;37.70;26.57;;;12.80;43.60;;;;;;5003979;28;20472;-45
2023/03/03 09:42:34;;;;;;;40.70;27.27;;;12.80;43.80;;;;;;5003600;28;20535;-44
2023/03/03 09:45:18;;;;;;;32.70;24.87;;;12.90;43.60;;;;;;5003306;28;20970;-45
2023/03/03 09:48:02;;;;;;;41.27;27.97;;;13.10;43.40;;;;;;5006103;28;20481;-46
2023/03/03 09:50:39;;;;;;;43.00;26.80;;;13.10;43.20;;;;;;5003771;28;20533;-47
2023/03/03 09:53:23;;;;;;;34.47;26.13;;;13.20;43.10;;;;;;4997179;28;20592;-46
2023/03/03 09:56:03;;;;;;;41.13;27.70;;;13.30;43.00;;;;;;5001289;28;20429;-48
2023/03/03 09:58:44;;;;;;;42.10;26.70;;;13.40;43.10;;;;;;5008032;28;20436;-48
2023/03/03 10:01:28;;;;;;;35.80;24.50;;;13.50;42.80;;;;;;5011287;28;20436;-45
2023/03/03 10:03:53;;;;;;;37.83;25.10;;;13.50;42.50;;;;;;5001017;28;20492;-46
2023/03/03 10:06:30;;;;;;;36.10;25.73;;;13.40;42.60;;;;;;5008350;28;20488;-46
2023/03/03 10:09:16;;;;;;;41.67;28.03;;;13.30;42.60;;;;;;5007631;28;20189;-45
2023/03/03 10:12:07;;;;;;;34.30;25.10;;;13.40;43.30;;;;;;5001283;28;20798;-50
2023/03/03 10:14:53;;;;;;;37.20;27.90;;;13.50;43.10;;;;;;5003661;28;20452;-48
2023/03/03 10:17:32;;;;;;;40.00;27.70;;;13.60;43.10;;;;;;5004854;28;20485;-47
2023/03/03 10:20:12;;;;;;;41.90;29.60;;;13.80;43.40;;;;;;5003209;28;20449;-46
2023/03/03 10:23:03;;;;;;;38.77;27.10;;;14.00;43.00;;;;;;5003925;28;20548;-45
2023/03/03 10:25:42;;;;;;;41.20;28.77;;;14.10;42.80;;;;;;5004128;28;20844;-46
2023/03/03 10:28:35;;;;;;;37.77;27.70;;;14.20;42.50;;;;;;5007379;28;20455;-48
2023/03/03 10:31:19;;;;;;;40.17;28.97;;;14.30;43.00;;;;;;4997508;28;20444;-45
2023/03/03 10:33:59;;;;;;;35.63;26.83;;;14.30;42.80;;;;;;5001467;28;20511;-46
2023/03/03 10:37:06;;;;;;;47.40;28.70;;;14.50;42.80;;;;;;5000289;28;20956;-46
2023/03/03 10:39:39;;;;;;;39.37;29.13;;;14.60;42.60;;;;;;4995554;28;20450;-48
2023/03/03 10:42:39;;;;;;;47.77;28.80;;;14.70;42.00;;;;;;4995770;28;20480;-48
2023/03/03 10:45:23;;;;;;;34.77;28.33;;;14.80;41.70;;;;;;4991715;28;20492;-51
2023/03/03 10:47:53;;;;;;;38.60;28.07;;;14.90;41.30;;;;;;5002323;28;20480;-46
2023/03/03 10:50:46;;;;;;;40.40;29.53;;;14.90;40.90;;;;;;4998540;28;20440;-46
2023/03/03 10:53:22;;;;;;;33.10;25.70;;;14.80;40.80;;;;;;4997724;28;20440;-48
2023/03/03 10:56:13;;;;;;;39.43;29.07;;;14.70;41.20;;;;;;5002630;28;20830;-47
2023/03/03 10:58:49;;;;;;;36.07;26.93;;;14.70;41.10;;;;;;4999078;28;20487;-48
2023/03/03 11:01:37;;;;;;;35.97;25.37;;;14.50;40.80;;;;;;4998308;28;20444;-47
2023/03/03 11:04:06;;;;;;;37.07;28.07;;;14.60;41.10;;;;;;5003264;28;20539;-49
2023/03/03 11:06:50;;;;;;;33.93;24.93;;;14.50;41.10;;;;;;4971600;28;20971;-46
2023/03/03 11:09:36;;;;;;;35.40;25.83;;;14.60;41.30;;;;;;5001259;28;20539;-45
2023/03/03 11:12:57;;;;;;;35.70;26.73;;;14.70;41.10;;;;;;4996239;28;20495;-47
2023/03/03 11:15:40;;;;;;;34.40;26.10;;;14.80;41.40;;;;;;4906111;29;20520;-47
2023/03/03 11:18:24;;;;;;;29.90;23.60;;;14.90;41.00;;;;;;5005695;28;20452;-46
2023/03/03 11:21:06;;;;;;;32.53;23.53;;;14.90;40.20;;;;;;5000961;28;20452;-48
2023/03/03 11:23:45;;;;;;;28.47;24.33;;;14.90;40.60;;;;;;5005049;28;20591;-49
2023/03/03 11:26:11;;;;;;;31.37;24.10;;;15.10;40.70;;;;;;4999853;28;20448;-45
2023/03/03 11:28:55;;;;;;;29.37;22.53;;;15.20;40.10;;;;;;4994691;28;20445;-46
2023/03/03 11:31:37;;;;;;;33.77;22.50;;;15.10;40.80;;;;;;5002044;28;20197;-51
2023/03/03 11:34:24;;;;;;;28.93;22.40;;;15.10;40.40;;;;;;5000687;28;20498;-53
2023/03/03 11:37:15;;;;;;;29.37;22.87;;;15.20;40.10;;;;;;5003489;28;20444;-45
2023/03/03 11:39:43;;;;;;;33.93;23.37;;;15.20;39.80;;;;;;4988552;28;20459;-46
2023/03/03 11:42:27;;;;;;;32.20;23.97;;;15.30;39.60;;;;;;5008372;28;20440;-47
2023/03/03 11:45:05;;;;;;;29.03;22.03;;;15.30;39.90;;;;;;5011092;28;21138;-45
2023/03/03 11:47:52;;;;;;;30.53;24.30;;;15.40;39.90;;;;;;4999485;28;20484;-50
2023/03/03 11:50:29;;;;;;;32.07;22.43;;;15.40;39.90;;;;;;5004155;28;20467;-49
2023/03/03 11:53:15;;;;;;;28.30;22.77;;;15.50;39.70;;;;;;5006164;28;20481;-47
2023/03/03 11:55:46;;;;;;;30.47;23.80;;;15.60;39.40;;;;;;4957745;28;20461;-50
2023/03/03 11:58:28;;;;;;;28.90;21.80;;;15.60;39.00;;;;;;5011699;28;20453;-47
2023/03/03 12:01:06;;;;;;;30.03;22.90;;;15.80;39.40;;;;;;5006869;28;20960;-51
2023/03/03 12:04:14;;;;;;;30.23;21.73;;;15.90;38.50;;;;;;5000968;28;20583;-46
2023/03/03 12:06:49;;;;;;;34.80;23.30;;;16.00;38.80;;;;;;4961590;28;20563;-47
2023/03/03 12:09:51;;;;;;;27.10;22.60;;;16.20;38.40;;;;;;5002199;28;20452;-46
2023/03/03 12:12:25;;;;;;;29.67;23.27;;;16.50;38.40;;;;;;5013017;28;20440;-50
2023/03/03 12:15:12;;;;;;;30.50;22.80;;;16.60;38.00;;;;;;4999710;28;20441;-51
2023/03/03 12:17:47;;;;;;;29.83;23.53;;;16.70;37.60;;;;;;5009164;28;20464;-50
2023/03/03 12:20:20;;;;;;;28.63;22.60;;;16.80;37.20;;;;;;5010700;28;20460;-47
2023/03/03 12:22:58;;;;;;;29.27;22.50;;;16.90;36.70;;;;;;5009164;28;20492;-47
2023/03/03 12:25:32;;;;;;;29.83;23.20;;;16.90;36.20;;;;;;5009806;28;20445;-46
2023/03/03 12:28:19;;;;;;;29.53;21.97;;;17.00;36.60;;;;;;5010183;28;20476;-49
2023/03/03 12:30:53;;;;;;;27.30;20.80;;;17.00;37.60;;;;;;5004704;28;20522;-48
2023/03/03 12:33:51;;;;;;;27.03;21.50;;;17.20;36.70;;;;;;5008838;28;20445;-46
2023/03/03 12:36:38;;;;;;;29.07;21.43;;;17.40;36.10;;;;;;4922919;28;20579;-51
2023/03/03 12:39:19;;;;;;;27.97;20.33;;;17.40;35.80;;;;;;5000173;28;20540;-48
2023/03/03 12:42:05;;;;;;;25.40;20.43;;;17.50;36.10;;;;;;5008907;28;20436;-49
2023/03/03 12:44:46;;;;;;;29.13;21.43;;;17.60;36.60;;;;;;5008339;28;20480;-48
2023/03/03 12:47:23;;;;;;;29.30;21.67;;;17.80;35.40;;;;;;5002862;28;20494;-48
2023/03/03 12:50:00;;;;;;;25.17;20.47;;;17.60;34.40;;;;;;4999414;28;20465;-50
2023/03/03 12:52:36;;;;;;;29.53;20.27;;;17.50;35.20;;;;;;5004260;28;20945;-48
2023/03/03 12:55:13;;;;;;;26.50;21.20;;;17.50;35.30;;;;;;5006186;28;20459;-47
2023/03/03 12:57:46;;;;;;;25.43;20.33;;;17.70;35.80;;;;;;4986144;28;20985;-48
2023/03/03 13:00:20;;;;;;;26.30;21.33;;;17.90;35.20;;;;;;4993040;28;20451;-52